Alexandria, Pennsylvania
Current Conditions -  °F | °C
As of 1:53 PM on Tuesday 21 Oct 2014 (Local Time) from KAOO Reporting Station
Broken Clouds Broken Clouds  
Wind Chill: 57°   Ceiling: 7000
Heat Index: 57°   Visibility: 10mi
Dew Point: 46°   Wind: 3mph
Humidity: 67%   Direction: 320°NW
Pressure: 29.84"   Gusts: NA
Location:  40.56°N, 78.1°W
Report Text: KAOO 211753Z AUTO 32003KT 10SM BKN070 BKN080 14/08 A2984 RMK AO2 SLP105 60000 T01390078 10139 20094 58011
Loading
Personal Weather Stations






























Interactive Weather Map New forecast layout! Learn more

10-Day Weather Forecast

Advertisements
Track Severe Weather on mobile